createdAt,value
2023-01-29T00:02:10.350Z,8.18
2023-01-29T00:04:37.489Z,7.30
2023-01-29T00:09:32.136Z,15.80
2023-01-29T00:11:59.316Z,8.27
2023-01-29T00:16:54.910Z,5.38
2023-01-29T00:19:22.002Z,6.93
2023-01-29T00:24:16.345Z,9.05
2023-01-29T00:26:43.501Z,8.27
2023-01-29T00:29:11.156Z,6.47
2023-01-29T00:31:38.353Z,6.38
2023-01-29T00:34:07.557Z,7.82
2023-01-29T00:36:34.710Z,6.10
2023-01-29T00:41:49.805Z,6.10
2023-01-29T00:44:35.593Z,6.40
2023-01-29T00:47:03.000Z,7.30
2023-01-29T00:49:32.996Z,5.47
2023-01-29T00:52:18.664Z,7.50
2023-01-29T00:54:45.852Z,8.27
2023-01-29T00:57:13.041Z,5.82
2023-01-29T01:02:27.369Z,7.38
2023-01-29T01:04:54.570Z,8.77
2023-01-29T01:07:21.852Z,6.93
2023-01-29T01:10:07.409Z,6.95
2023-01-29T01:12:34.653Z,7.18
2023-01-29T01:15:01.812Z,7.90
2023-01-29T01:17:28.875Z,5.50
2023-01-29T01:22:23.353Z,5.57
2023-01-29T01:24:50.513Z,6.63
2023-01-29T01:27:19.758Z,7.07
2023-01-29T01:29:47.194Z,7.00
2023-01-29T01:32:14.443Z,5.95
2023-01-29T01:34:41.738Z,4.40
2023-01-29T01:37:08.964Z,7.13
2023-01-29T01:39:36.190Z,6.45
2023-01-29T01:42:03.431Z,5.03
2023-01-29T01:44:52.298Z,8.18
2023-01-29T01:47:31.636Z,6.75
2023-01-29T01:50:08.121Z,6.72
2023-01-29T01:52:36.714Z,5.78
2023-01-29T01:55:04.240Z,10.02
2023-01-29T01:57:31.440Z,5.72
2023-01-29T02:00:00.850Z,10.32
2023-01-29T02:02:46.783Z,6.95
2023-01-29T02:05:32.394Z,9.00
2023-01-29T02:08:18.282Z,8.40
2023-01-29T02:10:46.639Z,7.57
2023-01-29T02:13:16.363Z,5.30
2023-01-29T02:15:46.976Z,5.82
2023-01-29T02:18:15.151Z,6.97
2023-01-29T02:20:49.878Z,7.97
2023-01-29T02:23:32.203Z,11.07
2023-01-29T02:26:10.968Z,6.47
2023-01-29T02:28:45.805Z,6.55
2023-01-29T02:31:41.573Z,6.55
2023-01-29T02:34:27.735Z,14.15
2023-01-29T02:36:57.550Z,11.30
2023-01-29T02:39:33.020Z,5.75
2023-01-29T02:42:25.556Z,7.35
2023-01-29T02:45:01.139Z,6.72
2023-01-29T02:47:34.101Z,7.05
2023-01-29T02:50:06.315Z,5.32
2023-01-29T02:52:38.065Z,6.65
2023-01-29T02:55:11.012Z,5.20
2023-01-29T02:57:41.103Z,5.10
2023-01-29T03:00:12.757Z,4.35
2023-01-29T03:03:03.901Z,6.05
2023-01-29T03:05:46.343Z,5.40
2023-01-29T03:08:16.226Z,9.20
2023-01-29T03:11:02.271Z,5.80
2023-01-29T03:14:13.265Z,4.90
2023-01-29T03:16:50.704Z,6.00
2023-01-29T03:19:26.451Z,7.88
2023-01-29T03:21:59.690Z,7.28
2023-01-29T03:25:14.709Z,4.07
2023-01-29T03:28:08.716Z,3.95
2023-01-29T03:31:11.868Z,6.80
2023-01-29T03:34:05.591Z,18.77
2023-01-29T03:37:03.769Z,5.20
2023-01-29T03:39:31.410Z,3.90
2023-01-29T03:42:12.920Z,8.18
2023-01-29T03:44:48.972Z,6.13
2023-01-29T03:47:25.427Z,10.95
2023-01-29T03:50:11.308Z,5.88
2023-01-29T03:52:43.459Z,5.30
2023-01-29T03:55:36.431Z,4.30
2023-01-29T03:58:06.570Z,9.93
2023-01-29T04:00:39.115Z,5.70
2023-01-29T04:03:25.175Z,6.10
2023-01-29T04:06:05.573Z,5.05
2023-01-29T04:08:37.130Z,4.20
2023-01-29T04:11:09.727Z,6.38
2023-01-29T04:13:37.010Z,6.47
2023-01-29T04:16:05.490Z,8.48
2023-01-29T04:18:59.223Z,4.28
2023-01-29T04:21:32.090Z,5.18
2023-01-29T04:24:00.019Z,4.72
2023-01-29T04:26:50.066Z,4.68
2023-01-29T04:29:38.206Z,5.65
2023-01-29T04:32:19.809Z,8.48
2023-01-29T04:35:10.723Z,4.00
2023-01-29T04:37:50.951Z,7.07
2023-01-29T04:40:23.467Z,5.28
2023-01-29T04:43:05.215Z,5.90
2023-01-29T04:45:50.507Z,5.63
2023-01-29T04:48:51.908Z,5.97
2023-01-29T04:51:43.496Z,5.85
2023-01-29T04:54:19.187Z,6.45
2023-01-29T04:57:07.157Z,5.72
2023-01-29T04:59:36.970Z,7.25
2023-01-29T05:02:04.061Z,7.75
2023-01-29T05:09:28.775Z,6.13
2023-01-29T05:14:22.898Z,6.05
2023-01-29T05:19:18.695Z,9.80
2023-01-29T05:21:47.364Z,6.75
2023-01-29T05:24:19.718Z,7.75
2023-01-29T05:27:06.231Z,7.78
2023-01-29T05:29:33.443Z,5.90
2023-01-29T05:32:00.748Z,8.50
2023-01-29T05:34:27.984Z,7.22
2023-01-29T05:36:55.175Z,8.52
2023-01-29T05:39:22.413Z,8.60
2023-01-29T05:41:49.556Z,10.85
2023-01-29T05:44:16.874Z,9.30
2023-01-29T05:46:44.789Z,7.25
2023-01-29T05:49:12.149Z,8.48
2023-01-29T05:51:39.334Z,12.18
2023-01-29T05:56:33.386Z,9.82
2023-01-29T06:01:27.486Z,9.60
2023-01-29T06:03:54.597Z,9.10
2023-01-29T06:08:48.931Z,10.38
2023-01-29T06:11:18.327Z,7.15
2023-01-29T06:13:45.817Z,8.20
2023-01-29T06:16:13.609Z,10.45
2023-01-29T06:18:41.321Z,10.55
2023-01-29T06:21:10.021Z,13.20
2023-01-29T06:23:37.288Z,8.88
2023-01-29T06:26:05.941Z,10.15
2023-01-29T06:28:33.053Z,15.02
2023-01-29T06:33:43.489Z,13.07
2023-01-29T06:38:37.569Z,9.05
2023-01-29T06:43:38.740Z,12.35
2023-01-29T06:46:07.300Z,11.48
2023-01-29T06:48:34.773Z,13.45
2023-01-29T06:51:03.489Z,13.13
2023-01-29T06:53:31.082Z,14.40
2023-01-29T06:55:58.191Z,13.27
2023-01-29T07:00:52.807Z,18.80
2023-01-29T07:03:20.081Z,18.40
2023-01-29T07:05:53.946Z,13.55
2023-01-29T07:08:22.840Z,14.07
2023-01-29T07:10:50.260Z,15.70
2023-01-29T07:13:17.575Z,12.07
2023-01-29T07:15:44.705Z,14.60
2023-01-29T07:20:41.910Z,13.75
2023-01-29T07:23:15.487Z,13.55
2023-01-29T07:25:42.715Z,15.15
2023-01-29T07:28:09.915Z,10.85
2023-01-29T07:30:37.123Z,13.15
2023-01-29T07:35:41.179Z,13.70
2023-01-29T07:38:09.024Z,15.27
2023-01-29T07:40:36.386Z,19.70
2023-01-29T07:43:05.316Z,16.58
2023-01-29T07:45:34.913Z,18.88
2023-01-29T07:48:02.052Z,17.00
2023-01-29T07:52:56.326Z,19.65
2023-01-29T07:55:23.539Z,15.45
2023-01-29T07:57:57.672Z,19.15
2023-01-29T08:00:24.873Z,15.60
2023-01-29T08:02:51.887Z,21.17
2023-01-29T08:05:19.162Z,18.20
2023-01-29T08:07:51.573Z,19.10
2023-01-29T08:10:28.149Z,16.73
2023-01-29T08:12:56.976Z,16.05
2023-01-29T08:15:24.326Z,16.45
2023-01-29T08:20:39.147Z,18.88
2023-01-29T08:25:34.421Z,20.38
2023-01-29T08:28:01.733Z,15.77
2023-01-29T08:32:57.035Z,17.08
2023-01-29T08:35:24.487Z,15.80
2023-01-29T08:37:59.554Z,20.23
2023-01-29T08:40:27.764Z,14.80
2023-01-29T08:43:02.021Z,17.42
2023-01-29T08:45:30.642Z,17.73
2023-01-29T08:47:57.714Z,21.52
2023-01-29T08:52:51.959Z,18.77
2023-01-29T08:57:46.480Z,18.23
2023-01-29T09:02:40.908Z,15.98
2023-01-29T09:07:35.187Z,15.48
2023-01-29T09:12:30.511Z,17.20
2023-01-29T09:14:57.541Z,18.75
2023-01-29T09:19:53.116Z,17.55
2023-01-29T09:22:20.773Z,19.63
2023-01-29T09:24:47.897Z,18.20
2023-01-29T09:29:41.959Z,19.15
2023-01-29T09:34:36.105Z,16.45
2023-01-29T09:39:30.560Z,16.63
2023-01-29T09:42:06.410Z,23.88
2023-01-29T09:44:54.570Z,17.38
2023-01-29T09:47:22.873Z,19.45
2023-01-29T09:49:58.275Z,17.90
2023-01-29T09:52:30.616Z,23.30
2023-01-29T09:55:14.890Z,23.60
2023-01-29T09:57:52.756Z,18.83
2023-01-29T10:00:32.590Z,16.50
2023-01-29T10:03:24.309Z,21.60
2023-01-29T10:06:20.620Z,25.63
2023-01-29T10:08:47.698Z,20.35
2023-01-29T10:14:01.822Z,21.42
2023-01-29T10:16:43.975Z,20.33
2023-01-29T10:19:35.494Z,19.92
2023-01-29T10:22:23.345Z,25.50
2023-01-29T10:25:13.644Z,21.75
2023-01-29T10:27:41.910Z,20.75
2023-01-29T10:30:38.303Z,21.35
2023-01-29T10:33:06.765Z,22.75
2023-01-29T10:35:44.667Z,17.67
2023-01-29T10:38:33.024Z,27.73
2023-01-29T10:44:06.135Z,22.75
2023-01-29T10:46:42.599Z,19.83
2023-01-29T10:49:34.175Z,19.95
2023-01-29T10:52:01.170Z,23.30
2023-01-29T10:54:34.352Z,24.17
2023-01-29T10:57:43.413Z,20.67
2023-01-29T11:00:17.909Z,19.65
2023-01-29T11:02:46.489Z,20.42
2023-01-29T11:05:35.382Z,24.25
2023-01-29T11:08:30.977Z,23.50
2023-01-29T11:11:08.729Z,22.48
2023-01-29T11:14:00.492Z,18.38
2023-01-29T11:16:28.577Z,20.70
2023-01-29T11:19:00.044Z,19.30
2023-01-29T11:21:28.629Z,20.52
2023-01-29T11:24:17.103Z,21.02
2023-01-29T11:26:45.875Z,19.95
2023-01-29T11:29:43.228Z,18.30
2023-01-29T11:32:34.314Z,20.38
2023-01-29T11:35:06.762Z,19.30
2023-01-29T11:37:34.985Z,20.52
2023-01-29T11:40:02.253Z,17.92
2023-01-29T11:42:31.141Z,20.70
2023-01-29T11:44:58.441Z,22.65
2023-01-29T11:49:57.317Z,18.13
2023-01-29T11:52:39.009Z,20.27
2023-01-29T11:55:07.656Z,18.35
2023-01-29T11:57:36.706Z,20.25
2023-01-29T12:00:07.243Z,23.10
2023-01-29T12:02:44.300Z,17.05
2023-01-29T12:05:19.513Z,17.92
2023-01-29T12:07:50.858Z,19.88
2023-01-29T12:10:31.889Z,20.75
2023-01-29T12:13:25.207Z,19.58
2023-01-29T12:16:04.797Z,21.80
2023-01-29T12:18:44.303Z,17.58
2023-01-29T12:21:18.485Z,19.38
2023-01-29T12:23:51.092Z,19.08
2023-01-29T12:26:36.308Z,16.67
2023-01-29T12:29:22.327Z,18.92
2023-01-29T12:32:12.743Z,20.17
2023-01-29T12:34:56.677Z,15.52
2023-01-29T12:37:47.133Z,17.52
2023-01-29T12:40:18.475Z,16.00
2023-01-29T12:42:49.987Z,19.67
2023-01-29T12:45:19.206Z,16.83
2023-01-29T12:47:51.072Z,16.38
2023-01-29T12:50:34.392Z,17.20
2023-01-29T12:53:28.809Z,16.65
2023-01-29T12:55:59.483Z,17.27
2023-01-29T12:58:48.610Z,11.75
2023-01-29T13:01:25.632Z,16.73
2023-01-29T13:04:00.227Z,17.50
2023-01-29T13:06:30.708Z,15.93
2023-01-29T13:09:17.661Z,17.95
2023-01-29T13:11:52.760Z,16.27
2023-01-29T13:14:29.003Z,22.05
2023-01-29T13:17:08.518Z,16.20
2023-01-29T13:19:38.587Z,17.33
2023-01-29T13:22:06.959Z,15.45
2023-01-29T13:24:41.709Z,17.05
2023-01-29T13:27:25.461Z,16.70
2023-01-29T13:29:53.265Z,16.35
2023-01-29T13:32:25.562Z,19.02
2023-01-29T13:34:54.632Z,18.67
2023-01-29T13:37:32.436Z,16.05
2023-01-29T13:40:00.464Z,17.27
2023-01-29T13:42:42.933Z,16.23
2023-01-29T13:45:17.901Z,18.65
2023-01-29T13:47:45.287Z,23.40
2023-01-29T13:50:33.042Z,15.00
2023-01-29T13:53:02.248Z,21.13
2023-01-29T13:55:36.759Z,20.02
2023-01-29T13:58:05.003Z,21.55
2023-01-29T14:00:35.256Z,18.85
2023-01-29T14:03:04.783Z,18.02
2023-01-29T14:05:31.938Z,16.27
2023-01-29T14:10:30.634Z,16.45
2023-01-29T14:13:03.779Z,16.77
2023-01-29T14:15:34.790Z,16.00
2023-01-29T14:18:21.392Z,16.85
2023-01-29T14:20:48.542Z,16.88
2023-01-29T14:23:23.152Z,16.67
2023-01-29T14:25:50.203Z,16.13
2023-01-29T14:28:21.416Z,14.02
2023-01-29T14:30:49.215Z,18.05
2023-01-29T14:33:36.272Z,17.70
2023-01-29T14:36:13.607Z,18.38
2023-01-29T14:38:41.567Z,16.08
2023-01-29T14:41:26.470Z,14.20
2023-01-29T14:44:31.887Z,17.02
2023-01-29T14:46:58.985Z,17.08
2023-01-29T14:52:11.470Z,20.90
2023-01-29T14:54:40.237Z,16.38
2023-01-29T14:57:11.019Z,17.50
2023-01-29T14:59:44.084Z,15.43
2023-01-29T15:02:20.592Z,16.63
2023-01-29T15:04:51.582Z,16.33
2023-01-29T15:07:29.835Z,18.65
2023-01-29T15:10:36.214Z,17.00
2023-01-29T15:13:36.078Z,14.95
2023-01-29T15:16:06.639Z,18.13
2023-01-29T15:18:37.363Z,15.55
2023-01-29T15:21:11.769Z,21.58
2023-01-29T15:23:39.097Z,14.57
2023-01-29T15:26:12.050Z,17.08
2023-01-29T15:28:39.260Z,20.13
2023-01-29T15:31:12.077Z,15.93
2023-01-29T15:33:39.320Z,14.38
2023-01-29T15:38:35.653Z,14.20
2023-01-29T15:41:04.471Z,14.60
2023-01-29T15:43:35.407Z,17.35
2023-01-29T15:46:05.078Z,17.20
2023-01-29T15:48:40.854Z,18.35
2023-01-29T15:51:08.912Z,16.02
2023-01-29T15:53:43.492Z,15.82
2023-01-29T15:56:11.195Z,19.70
2023-01-29T15:58:38.258Z,19.05
2023-01-29T16:03:33.423Z,14.77
2023-01-29T16:06:00.981Z,15.15
2023-01-29T16:08:28.117Z,18.45
2023-01-29T16:13:44.911Z,17.25
2023-01-29T16:16:26.960Z,19.33
2023-01-29T16:19:00.477Z,18.33
2023-01-29T16:21:38.657Z,15.90
2023-01-29T16:24:09.725Z,18.83
2023-01-29T16:26:38.300Z,16.92
2023-01-29T16:29:29.696Z,17.80
2023-01-29T16:32:00.710Z,16.05
2023-01-29T16:34:31.644Z,15.45
2023-01-29T16:36:58.925Z,17.15
2023-01-29T16:39:30.648Z,14.23
2023-01-29T16:42:13.203Z,15.80
2023-01-29T16:44:40.511Z,20.58
2023-01-29T16:47:12.932Z,19.00
2023-01-29T16:49:43.371Z,15.30
2023-01-29T16:52:18.785Z,16.25
2023-01-29T16:54:45.811Z,16.27
2023-01-29T16:57:16.519Z,17.10
2023-01-29T16:59:43.619Z,17.25
2023-01-29T17:04:46.810Z,17.23
2023-01-29T17:07:18.510Z,21.00
2023-01-29T17:09:45.543Z,17.85
2023-01-29T17:12:17.424Z,16.42
2023-01-29T17:14:56.931Z,20.85
2023-01-29T17:17:30.411Z,17.08
2023-01-29T17:20:18.351Z,18.95
2023-01-29T17:22:47.055Z,18.02
2023-01-29T17:25:14.271Z,16.20
2023-01-29T17:27:42.257Z,15.77
2023-01-29T17:30:16.196Z,18.45
2023-01-29T17:32:45.037Z,21.52
2023-01-29T17:35:15.490Z,19.52
2023-01-29T17:37:42.750Z,17.98
2023-01-29T17:42:49.219Z,16.02
2023-01-29T17:47:43.684Z,18.17
2023-01-29T17:50:23.481Z,17.55
2023-01-29T17:52:50.869Z,18.63
2023-01-29T17:55:18.208Z,23.05
2023-01-29T17:57:45.545Z,23.63
2023-01-29T18:02:49.974Z,19.60
2023-01-29T18:05:17.657Z,18.38
2023-01-29T18:07:46.590Z,16.80
2023-01-29T18:10:18.237Z,19.50
2023-01-29T18:12:45.326Z,19.08
2023-01-29T18:17:40.045Z,19.33
2023-01-29T18:20:21.846Z,19.27
2023-01-29T18:22:48.936Z,17.70
2023-01-29T18:25:16.581Z,17.45
2023-01-29T18:27:43.903Z,17.42
2023-01-29T18:32:38.490Z,20.33
2023-01-29T18:35:06.690Z,19.50
2023-01-29T18:37:34.149Z,17.90
2023-01-29T18:40:01.299Z,20.17
2023-01-29T18:44:57.845Z,17.52
2023-01-29T18:49:52.238Z,16.73
2023-01-29T18:52:19.411Z,23.13
2023-01-29T18:57:14.713Z,19.55
2023-01-29T19:00:00.624Z,22.60
2023-01-29T19:02:27.915Z,19.75
2023-01-29T19:07:21.986Z,17.75
2023-01-29T19:12:17.548Z,17.20
2023-01-29T19:17:11.819Z,22.45
2023-01-29T19:19:38.974Z,21.75
2023-01-29T19:24:38.912Z,15.75
2023-01-29T19:27:09.095Z,24.25
2023-01-29T19:29:36.202Z,20.98
2023-01-29T19:34:30.293Z,20.10
2023-01-29T19:39:24.474Z,16.60
2023-01-29T19:41:51.517Z,20.08
2023-01-29T19:46:46.874Z,17.52
2023-01-29T19:49:14.105Z,17.83
2023-01-29T19:51:41.531Z,19.20
2023-01-29T19:54:09.451Z,22.35
2023-01-29T19:56:36.577Z,19.52
2023-01-29T20:01:32.344Z,17.67
2023-01-29T20:03:59.550Z,19.83
2023-01-29T20:06:27.930Z,18.17
2023-01-29T20:08:55.060Z,17.55
2023-01-29T20:13:50.664Z,21.90
2023-01-29T20:16:17.880Z,18.73
2023-01-29T20:18:45.194Z,16.35
2023-01-29T20:26:08.470Z,19.48
2023-01-29T20:28:36.287Z,18.85
2023-01-29T20:31:03.907Z,18.45
2023-01-29T20:33:31.959Z,19.45
2023-01-29T20:36:01.403Z,15.73
2023-01-29T20:38:30.595Z,16.05
2023-01-29T20:41:03.889Z,18.88
2023-01-29T20:43:31.143Z,22.13
2023-01-29T20:45:58.688Z,15.25
2023-01-29T20:48:26.134Z,16.20
2023-01-29T20:50:53.959Z,16.90
2023-01-29T20:53:21.072Z,18.45
2023-01-29T20:55:48.327Z,16.85
2023-01-29T20:58:15.481Z,21.67
2023-01-29T21:03:09.574Z,15.93
2023-01-29T21:08:03.769Z,15.75
2023-01-29T21:12:57.846Z,14.45
2023-01-29T21:17:54.849Z,16.73
2023-01-29T21:20:22.101Z,14.80
2023-01-29T21:22:49.434Z,14.52
2023-01-29T21:25:17.508Z,15.90
2023-01-29T21:27:44.876Z,14.63
2023-01-29T21:30:12.278Z,15.07
2023-01-29T21:32:39.339Z,14.88
2023-01-29T21:37:36.954Z,13.38
2023-01-29T21:40:05.386Z,16.40
2023-01-29T21:42:50.919Z,14.48
2023-01-29T21:45:18.061Z,17.65
2023-01-29T21:47:45.212Z,15.18
2023-01-29T21:52:39.216Z,17.75
2023-01-29T21:57:33.400Z,15.40
2023-01-29T22:02:30.889Z,14.80
2023-01-29T22:05:16.620Z,14.10
2023-01-29T22:07:45.680Z,15.60
2023-01-29T22:10:13.016Z,17.02
2023-01-29T22:12:40.381Z,17.88
2023-01-29T22:15:08.141Z,14.02
2023-01-29T22:17:35.447Z,16.35
2023-01-29T22:20:02.743Z,13.50
2023-01-29T22:22:29.893Z,14.18
2023-01-29T22:27:25.961Z,18.45
2023-01-29T22:32:20.086Z,14.13
2023-01-29T22:34:47.277Z,14.13
2023-01-29T22:39:41.279Z,13.85
2023-01-29T22:44:35.416Z,18.48
2023-01-29T22:49:30.439Z,16.27
2023-01-29T22:52:12.927Z,18.90
2023-01-29T22:54:41.297Z,15.18
2023-01-29T22:57:12.676Z,16.52
2023-01-29T22:59:39.824Z,18.38
2023-01-29T23:02:07.591Z,16.40
2023-01-29T23:04:34.805Z,16.50
2023-01-29T23:07:01.952Z,16.05
2023-01-29T23:11:56.264Z,16.38
2023-01-29T23:14:23.369Z,15.07
2023-01-29T23:19:17.696Z,19.27
2023-01-29T23:21:44.782Z,14.73
2023-01-29T23:26:57.846Z,14.93
2023-01-29T23:29:25.456Z,14.02
2023-01-29T23:31:52.491Z,14.23
2023-01-29T23:36:47.828Z,15.82
2023-01-29T23:39:14.815Z,14.02
2023-01-29T23:41:41.977Z,15.98
2023-01-29T23:46:36.077Z,16.80
2023-01-29T23:49:03.216Z,16.75
2023-01-29T23:53:57.358Z,16.08
2023-01-29T23:56:24.546Z,17.40
2023-01-29T23:58:55.332Z,13.70
